createdAt,value
2022-10-23T00:01:20.955Z,101440.03
2022-10-23T00:03:47.974Z,101450.59
2022-10-23T00:06:15.020Z,101444.56
2022-10-23T00:08:41.537Z,101449.13
2022-10-23T00:11:14.844Z,101449.84
2022-10-23T00:13:41.484Z,101449.84
2022-10-23T00:16:08.816Z,101445.72
2022-10-23T00:18:36.399Z,101447.59
2022-10-23T00:21:02.967Z,101457.38
2022-10-23T00:23:29.502Z,101452.19
2022-10-23T00:25:55.974Z,101455.53
2022-10-23T00:28:22.381Z,101450.25
2022-10-23T00:30:48.880Z,101445.34
2022-10-23T00:33:15.306Z,101446.50
2022-10-23T00:35:42.770Z,101443.88
2022-10-23T00:38:10.399Z,101444.28
2022-10-23T00:40:38.469Z,101438.63
2022-10-23T00:43:07.024Z,101439.38
2022-10-23T00:45:34.006Z,101437.84
2022-10-23T00:48:01.911Z,101437.50
2022-10-23T00:50:31.758Z,101438.59
2022-10-23T00:53:02.228Z,101434.03
2022-10-23T00:55:30.346Z,101442.63
2022-10-23T00:57:56.824Z,101442.59
2022-10-23T01:00:40.570Z,101433.94
2022-10-23T01:03:07.393Z,101436.50
2022-10-23T01:05:42.966Z,101433.13
2022-10-23T01:08:22.221Z,101431.22
2022-10-23T01:10:56.900Z,101429.72
2022-10-23T01:13:53.669Z,101431.16
2022-10-23T01:16:54.186Z,101434.19
2022-10-23T01:19:37.267Z,101427.00
2022-10-23T01:22:13.360Z,101424.00
2022-10-23T01:24:58.861Z,101428.78
2022-10-23T01:27:41.762Z,101419.00
2022-10-23T01:30:11.395Z,101428.34
2022-10-23T01:32:48.980Z,101417.13
2022-10-23T01:35:34.235Z,101412.91
2022-10-23T01:38:11.810Z,101409.19
2022-10-23T01:40:48.261Z,101416.31
2022-10-23T01:43:20.128Z,101411.47
2022-10-23T01:45:51.165Z,101410.06
2022-10-23T01:48:22.061Z,101412.72
2022-10-23T01:50:50.061Z,101411.88
2022-10-23T01:53:18.578Z,101399.13
2022-10-23T01:55:47.362Z,101390.44
2022-10-23T01:58:15.709Z,101388.53
2022-10-23T02:00:45.525Z,101388.16
2022-10-23T02:03:15.782Z,101386.34
2022-10-23T02:05:43.620Z,101386.44
2022-10-23T02:08:10.426Z,101386.44
2022-10-23T02:11:11.199Z,101385.25
2022-10-23T02:13:59.854Z,101375.44
2022-10-23T02:16:37.567Z,101370.50
2022-10-23T02:19:09.800Z,101366.72
2022-10-23T02:21:53.992Z,101364.78
2022-10-23T02:24:29.240Z,101353.88
2022-10-23T02:27:00.762Z,101350.53
2022-10-23T02:29:44.991Z,101352.78
2022-10-23T02:32:13.078Z,101352.84
2022-10-23T02:34:39.529Z,101352.09
2022-10-23T02:37:06.025Z,101342.00
2022-10-23T02:39:33.566Z,101351.03
2022-10-23T02:41:59.961Z,101351.84
2022-10-23T02:45:00.346Z,101349.28
2022-10-23T02:47:59.260Z,101358.34
2022-10-23T02:50:34.713Z,101354.19
2022-10-23T02:53:01.141Z,101353.44
2022-10-23T02:55:39.566Z,101356.13
2022-10-23T02:58:17.830Z,101360.97
2022-10-23T03:00:51.527Z,101347.34
2022-10-23T03:03:27.795Z,101337.50
2022-10-23T03:05:56.490Z,101335.91
2022-10-23T03:08:23.033Z,101325.38
2022-10-23T03:10:49.515Z,101326.88
2022-10-23T03:13:16.002Z,101317.16
2022-10-23T03:15:42.592Z,101321.66
2022-10-23T03:18:09.169Z,101319.03
2022-10-23T03:20:35.639Z,101314.22
2022-10-23T03:23:02.096Z,101312.66
2022-10-23T03:25:28.821Z,101316.13
2022-10-23T03:27:55.298Z,101307.47
2022-10-23T03:30:21.727Z,101301.06
2022-10-23T03:32:48.149Z,101293.22
2022-10-23T03:35:14.607Z,101289.13
2022-10-23T03:37:41.256Z,101290.19
2022-10-23T03:40:08.637Z,101278.88
2022-10-23T03:42:35.126Z,101276.22
2022-10-23T03:45:01.833Z,101273.59
2022-10-23T03:47:30.377Z,101270.19
2022-10-23T03:49:56.893Z,101277.34
2022-10-23T03:54:50.815Z,101272.41
2022-10-23T03:57:17.223Z,101263.09
2022-10-23T03:59:43.648Z,101263.16
2022-10-23T04:02:10.620Z,101254.91
2022-10-23T04:04:37.139Z,101255.31
2022-10-23T04:07:03.644Z,101251.97
2022-10-23T04:09:30.141Z,101243.28
2022-10-23T04:11:56.883Z,101242.19
2022-10-23T04:14:23.426Z,101237.31
2022-10-23T04:16:49.865Z,101232.41
2022-10-23T04:19:17.194Z,101229.84
2022-10-23T04:21:44.093Z,101226.84
2022-10-23T04:24:10.957Z,101227.25
2022-10-23T04:26:37.397Z,101230.25
2022-10-23T04:29:03.915Z,101227.66
2022-10-23T04:31:30.345Z,101220.16
2022-10-23T04:33:56.874Z,101216.75
2022-10-23T04:36:23.325Z,101219.78
2022-10-23T04:38:49.750Z,101219.38
2022-10-23T04:41:16.204Z,101211.50
2022-10-23T04:43:42.616Z,101211.53
2022-10-23T04:46:09.058Z,101203.63
2022-10-23T04:48:35.532Z,101199.47
2022-10-23T04:51:05.544Z,101198.34
2022-10-23T04:53:32.746Z,101195.72
2022-10-23T04:56:00.127Z,101192.69
2022-10-23T04:58:28.589Z,101190.84
2022-10-23T05:00:55.210Z,101192.34
2022-10-23T05:03:22.656Z,101194.56
2022-10-23T05:05:49.137Z,101184.44
2022-10-23T05:08:18.015Z,101190.44
2022-10-23T05:10:44.768Z,101190.44
2022-10-23T05:13:11.258Z,101189.72
2022-10-23T05:15:37.788Z,101186.25
2022-10-23T05:18:24.568Z,101189.63
2022-10-23T05:20:56.659Z,101195.28
2022-10-23T05:23:24.907Z,101182.88
2022-10-23T05:25:51.387Z,101197.88
2022-10-23T05:28:17.846Z,101190.75
2022-10-23T05:30:44.839Z,101190.03
2022-10-23T05:33:11.733Z,101189.25
2022-10-23T05:35:40.472Z,101185.13
2022-10-23T05:38:07.455Z,101185.44
2022-10-23T05:40:34.078Z,101194.84
2022-10-23T05:43:00.790Z,101183.22
2022-10-23T05:45:28.436Z,101172.31
2022-10-23T05:47:55.002Z,101176.44
2022-10-23T05:50:25.735Z,101159.56
2022-10-23T05:52:52.230Z,101163.28
2022-10-23T05:55:18.650Z,101170.06
2022-10-23T05:57:45.450Z,101165.94
2022-10-23T06:00:12.960Z,101165.91
2022-10-23T06:02:39.541Z,101168.94
2022-10-23T06:05:06.308Z,101160.66
2022-10-23T06:07:35.146Z,101158.03
2022-10-23T06:10:03.769Z,101157.25
2022-10-23T06:12:31.360Z,101149.00
2022-10-23T06:14:57.836Z,101154.25
2022-10-23T06:17:24.276Z,101142.22
2022-10-23T06:19:51.118Z,101131.34
2022-10-23T06:22:17.591Z,101130.94
2022-10-23T06:24:44.017Z,101130.19
2022-10-23T06:27:10.482Z,101139.22
2022-10-23T06:29:36.871Z,101134.00
2022-10-23T06:32:03.387Z,101136.63
2022-10-23T06:34:29.815Z,101134.75
2022-10-23T06:36:56.249Z,101133.25
2022-10-23T06:39:24.382Z,101132.53
2022-10-23T06:41:52.647Z,101128.38
2022-10-23T06:44:19.078Z,101124.19
2022-10-23T06:46:48.499Z,101113.75
2022-10-23T06:49:16.208Z,101113.03
2022-10-23T06:51:43.163Z,101109.66
2022-10-23T06:54:13.871Z,101098.00
2022-10-23T06:56:40.343Z,101106.66
2022-10-23T06:59:07.742Z,101094.97
2022-10-23T07:01:35.302Z,101100.25
2022-10-23T07:04:01.905Z,101105.16
2022-10-23T07:06:28.335Z,101106.28
2022-10-23T07:08:54.794Z,101102.53
2022-10-23T07:11:21.256Z,101108.53
2022-10-23T07:13:47.818Z,101108.13
2022-10-23T07:16:22.060Z,101099.91
2022-10-23T07:18:50.314Z,101101.75
2022-10-23T07:21:17.933Z,101105.16
2022-10-23T07:23:44.332Z,101107.03
2022-10-23T07:26:16.913Z,101105.16
2022-10-23T07:28:45.234Z,101096.13
2022-10-23T07:31:12.341Z,101092.00
2022-10-23T07:33:39.411Z,101093.88
2022-10-23T07:36:09.655Z,101089.75
2022-10-23T07:38:36.146Z,101095.38
2022-10-23T07:41:02.760Z,101089.00
2022-10-23T07:43:29.445Z,101089.38
2022-10-23T07:45:56.318Z,101086.00
2022-10-23T07:48:23.913Z,101078.09
2022-10-23T07:50:51.148Z,101083.72
2022-10-23T07:53:20.199Z,101076.22
2022-10-23T07:55:55.516Z,101070.19
2022-10-23T07:58:23.464Z,101072.47
2022-10-23T08:00:55.801Z,101073.22
2022-10-23T08:03:22.311Z,101075.44
2022-10-23T08:05:48.727Z,101064.94
2022-10-23T08:08:15.202Z,101070.19
2022-10-23T08:10:41.808Z,101060.41
2022-10-23T08:13:12.097Z,101063.81
2022-10-23T08:15:38.700Z,101058.94
2022-10-23T08:18:05.223Z,101060.44
2022-10-23T08:20:31.691Z,101063.41
2022-10-23T08:22:58.086Z,101061.91
2022-10-23T08:25:25.186Z,101055.16
2022-10-23T08:27:52.543Z,101063.03
2022-10-23T08:30:19.726Z,101053.63
2022-10-23T08:32:46.134Z,101049.50
2022-10-23T08:35:12.618Z,101043.09
2022-10-23T08:37:39.003Z,101048.38
2022-10-23T08:40:05.908Z,101040.47
2022-10-23T08:42:37.050Z,101039.72
2022-10-23T08:45:13.004Z,101032.59
2022-10-23T08:47:43.936Z,101023.19
2022-10-23T08:50:19.561Z,101031.84
2022-10-23T08:52:57.194Z,101028.44
2022-10-23T08:55:27.370Z,101029.59
2022-10-23T08:58:06.056Z,101019.44
2022-10-23T09:00:33.411Z,101020.94
2022-10-23T09:03:03.685Z,101017.16
2022-10-23T09:06:03.527Z,101014.88
2022-10-23T09:08:43.522Z,101004.75
2022-10-23T09:11:31.809Z,101004.75
2022-10-23T09:14:33.009Z,101000.22
2022-10-23T09:19:46.053Z,100997.97
2022-10-23T09:22:13.258Z,100990.44
2022-10-23T09:24:43.447Z,100988.53
2022-10-23T09:27:14.965Z,100993.09
2022-10-23T09:29:48.902Z,100997.59
2022-10-23T09:32:15.370Z,100983.69
2022-10-23T09:34:52.213Z,100982.94
2022-10-23T09:37:33.336Z,100972.78
2022-10-23T09:40:29.165Z,100967.88
2022-10-23T09:42:58.518Z,100957.72
2022-10-23T09:45:31.067Z,100966.00
2022-10-23T09:48:12.169Z,100952.47
2022-10-23T09:50:48.086Z,100964.13
2022-10-23T09:53:23.202Z,100955.47
2022-10-23T09:55:54.847Z,100965.25
2022-10-23T09:58:29.723Z,100959.22
2022-10-23T10:00:57.068Z,100952.44
2022-10-23T10:03:24.597Z,100947.91
2022-10-23T10:06:31.069Z,100932.88
2022-10-23T10:09:00.473Z,100937.38
2022-10-23T10:11:27.823Z,100935.88
2022-10-23T10:14:15.635Z,100932.50
2022-10-23T10:16:54.352Z,100921.97
2022-10-23T10:19:39.169Z,100927.19
2022-10-23T10:22:34.292Z,100920.41
2022-10-23T10:25:19.767Z,100908.34
2022-10-23T10:28:13.234Z,100894.44
2022-10-23T10:30:48.901Z,100890.28
2022-10-23T10:33:24.884Z,100894.38
2022-10-23T10:36:29.452Z,100882.72
2022-10-23T10:39:04.023Z,100874.81
2022-10-23T10:41:55.597Z,100880.78
2022-10-23T10:44:37.916Z,100876.25
2022-10-23T10:47:17.156Z,100867.25
2022-10-23T10:49:58.948Z,100852.59
2022-10-23T10:52:48.300Z,100852.94
2022-10-23T10:55:30.018Z,100848.78
2022-10-23T10:58:01.266Z,100848.78
2022-10-23T11:00:29.848Z,100844.63
2022-10-23T11:03:07.139Z,100833.72
2022-10-23T11:05:38.820Z,100835.94
2022-10-23T11:08:44.443Z,100827.66
2022-10-23T11:11:39.385Z,100832.53
2022-10-23T11:14:13.843Z,100833.28
2022-10-23T11:16:42.871Z,100838.56
2022-10-23T11:19:24.436Z,100837.41
2022-10-23T11:21:56.630Z,100824.97
2022-10-23T11:24:49.507Z,100811.06
2022-10-23T11:27:37.586Z,100804.28
2022-10-23T11:30:17.761Z,100808.03
2022-10-23T11:33:05.662Z,100804.25
2022-10-23T11:35:54.035Z,100794.09
2022-10-23T11:38:30.657Z,100788.03
2022-10-23T11:41:03.947Z,100783.13
2022-10-23T11:43:34.162Z,100766.13
2022-10-23T11:46:30.870Z,100762.75
2022-10-23T11:48:57.676Z,100760.47
2022-10-23T11:51:33.422Z,100767.63
2022-10-23T11:54:12.176Z,100756.75
2022-10-23T11:56:52.746Z,100752.97
2022-10-23T11:59:28.391Z,100759.00
2022-10-23T12:01:57.413Z,100758.25
2022-10-23T12:04:28.060Z,100774.44
2022-10-23T12:07:00.570Z,100763.91
2022-10-23T12:09:33.110Z,100763.84
2022-10-23T12:12:08.657Z,100753.31
2022-10-23T12:14:45.792Z,100746.50
2022-10-23T12:17:35.848Z,100729.19
2022-10-23T12:20:02.250Z,100723.94
2022-10-23T12:22:56.546Z,100716.34
2022-10-23T12:26:00.655Z,100714.88
2022-10-23T12:28:42.501Z,100706.63
2022-10-23T12:31:30.678Z,100708.13
2022-10-23T12:34:21.898Z,100712.63
2022-10-23T12:37:37.775Z,100700.22
2022-10-23T12:40:09.169Z,100703.94
2022-10-23T12:42:36.587Z,100694.94
2022-10-23T12:45:18.796Z,100697.19
2022-10-23T12:47:46.933Z,100680.94
2022-10-23T12:50:30.460Z,100674.19
2022-10-23T12:52:58.239Z,100682.09
2022-10-23T12:55:27.509Z,100676.06
2022-10-23T12:57:55.447Z,100662.13
2022-10-23T13:00:24.106Z,100660.63
2022-10-23T13:03:04.338Z,100653.84
2022-10-23T13:05:32.135Z,100655.00
2022-10-23T13:08:00.226Z,100653.09
2022-10-23T13:10:28.098Z,100652.72
2022-10-23T13:13:02.790Z,100645.19
2022-10-23T13:15:44.576Z,100644.44
2022-10-23T13:18:14.262Z,100643.66
2022-10-23T13:20:52.952Z,100639.19
2022-10-23T13:23:34.318Z,100626.00
2022-10-23T13:26:06.863Z,100608.66
2022-10-23T13:28:35.164Z,100605.66
2022-10-23T13:31:22.558Z,100603.78
2022-10-23T13:34:18.984Z,100594.69
2022-10-23T13:36:54.744Z,100592.50
2022-10-23T13:39:32.612Z,100580.06
2022-10-23T13:42:14.230Z,100575.13
2022-10-23T13:44:41.495Z,100579.63
2022-10-23T13:47:17.702Z,100567.59
2022-10-23T13:49:44.182Z,100564.25
2022-10-23T13:52:13.514Z,100558.56
2022-10-23T13:54:40.127Z,100564.56
2022-10-23T13:57:12.779Z,100564.25
2022-10-23T13:59:39.281Z,100551.38
2022-10-23T14:02:18.464Z,100563.06
2022-10-23T14:04:46.358Z,100554.38
2022-10-23T14:07:12.959Z,100560.03
2022-10-23T14:09:39.362Z,100563.81
2022-10-23T14:12:05.890Z,100546.88
2022-10-23T14:14:32.391Z,100539.72
2022-10-23T14:16:58.805Z,100546.41
2022-10-23T14:19:25.299Z,100544.59
2022-10-23T14:21:51.746Z,100541.19
2022-10-23T14:24:18.150Z,100541.94
2022-10-23T14:26:44.567Z,100532.56
2022-10-23T14:29:17.256Z,100540.47
2022-10-23T14:31:47.920Z,100531.41
2022-10-23T14:34:14.452Z,100540.06
2022-10-23T14:36:49.897Z,100535.94
2022-10-23T14:39:17.837Z,100536.69
2022-10-23T14:41:44.382Z,100544.97
2022-10-23T14:44:10.955Z,100543.84
2022-10-23T14:46:38.439Z,100538.16
2022-10-23T14:49:05.220Z,100531.41
2022-10-23T14:51:31.634Z,100535.19
2022-10-23T14:54:01.584Z,100540.47
2022-10-23T14:56:29.825Z,100542.34
2022-10-23T14:59:02.634Z,100523.16
2022-10-23T15:01:35.936Z,100513.00
2022-10-23T15:04:02.532Z,100513.75
2022-10-23T15:06:28.995Z,100511.09
2022-10-23T15:08:55.934Z,100510.38
2022-10-23T15:11:24.040Z,100509.63
2022-10-23T15:13:51.101Z,100503.63
2022-10-23T15:16:17.957Z,100498.34
2022-10-23T15:18:44.405Z,100495.72
2022-10-23T15:21:11.054Z,100502.13
2022-10-23T15:23:40.110Z,100496.44
2022-10-23T15:26:09.364Z,100497.19
2022-10-23T15:28:35.851Z,100477.63
2022-10-23T15:31:02.822Z,100479.53
2022-10-23T15:33:29.398Z,100470.50
2022-10-23T15:35:55.974Z,100477.63
2022-10-23T15:38:23.535Z,100473.13
2022-10-23T15:40:50.160Z,100464.78
2022-10-23T15:43:17.677Z,100470.03
2022-10-23T15:45:45.277Z,100466.66
2022-10-23T15:48:11.756Z,100468.91
2022-10-23T15:50:38.238Z,100468.91
2022-10-23T15:53:04.751Z,100462.13
2022-10-23T15:55:31.277Z,100448.22
2022-10-23T15:58:01.925Z,100442.59
2022-10-23T16:00:28.433Z,100442.19
2022-10-23T16:02:54.878Z,100432.41
2022-10-23T16:05:21.404Z,100422.59
2022-10-23T16:07:47.800Z,100418.47
2022-10-23T16:10:14.267Z,100422.59
2022-10-23T16:12:40.837Z,100421.09
2022-10-23T16:15:08.290Z,100425.63
2022-10-23T16:17:34.711Z,100430.50
2022-10-23T16:20:01.175Z,100427.13
2022-10-23T16:22:27.848Z,100424.13
2022-10-23T16:24:54.402Z,100419.63
2022-10-23T16:27:20.828Z,100427.53
2022-10-23T16:29:47.315Z,100423.41
2022-10-23T16:32:13.765Z,100416.22
2022-10-23T16:34:40.254Z,100422.66
2022-10-23T16:37:06.842Z,100417.38
2022-10-23T16:39:33.336Z,100418.53
2022-10-23T16:41:59.740Z,100396.63
2022-10-23T16:44:26.199Z,100401.44
2022-10-23T16:46:52.615Z,100392.41
2022-10-23T16:49:19.029Z,100403.28
2022-10-23T16:51:45.630Z,100401.75
2022-10-23T16:54:12.119Z,100401.75
2022-10-23T16:56:38.579Z,100419.03
2022-10-23T16:59:05.516Z,100431.88
2022-10-23T17:01:33.292Z,100433.72
2022-10-23T17:04:00.437Z,100424.31
2022-10-23T17:06:29.793Z,100411.56
2022-10-23T17:08:56.895Z,100405.53
2022-10-23T17:11:26.025Z,100414.19
2022-10-23T17:14:00.981Z,100416.81
2022-10-23T17:16:36.751Z,100417.56
2022-10-23T17:19:15.980Z,100405.13
2022-10-23T17:21:51.249Z,100393.84
2022-10-23T17:24:17.952Z,100410.44
2022-10-23T17:26:44.463Z,100402.19
2022-10-23T17:29:15.083Z,100401.84
2022-10-23T17:31:47.789Z,100403.81
2022-10-23T17:34:18.081Z,100412.84
2022-10-23T17:36:47.871Z,100417.78
2022-10-23T17:39:16.539Z,100414.38
2022-10-23T17:41:44.169Z,100405.06
2022-10-23T17:44:11.305Z,100403.31
2022-10-23T17:46:38.164Z,100412.47
2022-10-23T17:49:05.266Z,100418.09
2022-10-23T17:51:34.120Z,100409.16
2022-10-23T17:54:04.592Z,100403.91
2022-10-23T17:56:32.726Z,100401.34
2022-10-23T17:59:02.585Z,100395.63
2022-10-23T18:01:30.943Z,100409.56
2022-10-23T18:04:00.672Z,100401.34
2022-10-23T18:06:29.936Z,100394.50
2022-10-23T18:08:56.690Z,100391.78
2022-10-23T18:11:29.381Z,100390.38
2022-10-23T18:13:57.448Z,100388.88
2022-10-23T18:16:24.017Z,100390.38
2022-10-23T18:18:53.666Z,100391.94
2022-10-23T18:21:22.140Z,100396.06
2022-10-23T18:23:49.290Z,100397.94
2022-10-23T18:26:24.496Z,100401.72
2022-10-23T18:28:53.162Z,100382.16
2022-10-23T18:31:20.660Z,100380.72
2022-10-23T18:33:47.631Z,100361.97
2022-10-23T18:36:22.778Z,100363.44
2022-10-23T18:38:50.070Z,100371.63
2022-10-23T18:41:17.920Z,100357.75
2022-10-23T18:43:44.903Z,100373.56
2022-10-23T18:46:14.751Z,100361.16
2022-10-23T18:48:41.898Z,100360.78
2022-10-23T18:51:15.746Z,100363.03
2022-10-23T18:53:42.866Z,100363.84
2022-10-23T18:56:09.288Z,100366.41
2022-10-23T18:58:36.550Z,100363.03
2022-10-23T19:01:03.909Z,100359.66
2022-10-23T19:03:30.540Z,100355.88
2022-10-23T19:05:57.015Z,100344.13
2022-10-23T19:08:23.417Z,100341.91
2022-10-23T19:10:51.278Z,100340.00
2022-10-23T19:13:17.877Z,100374.56
2022-10-23T19:15:44.620Z,100393.44
2022-10-23T19:18:11.460Z,100417.53
2022-10-23T19:20:38.039Z,100392.00
2022-10-23T19:23:06.354Z,100386.34
2022-10-23T19:25:35.318Z,100373.19
2022-10-23T19:28:04.256Z,100356.63
2022-10-23T19:30:31.341Z,100340.06
2022-10-23T19:32:57.791Z,100365.03
2022-10-23T19:35:24.270Z,100359.75
2022-10-23T19:37:50.714Z,100353.81
2022-10-23T19:40:17.428Z,100356.03
2022-10-23T19:42:44.442Z,100363.50
2022-10-23T19:45:14.189Z,100366.28
2022-10-23T19:47:41.451Z,100381.28
2022-10-23T19:50:09.324Z,100370.41
2022-10-23T19:52:36.114Z,100377.56
2022-10-23T19:55:04.259Z,100384.69
2022-10-23T19:57:33.871Z,100390.41
2022-10-23T20:00:01.576Z,100399.41
2022-10-23T20:02:28.535Z,100408.41
2022-10-23T20:04:55.274Z,100407.28
2022-10-23T20:07:22.228Z,100415.94
2022-10-23T20:09:48.778Z,100407.25
2022-10-23T20:12:15.414Z,100413.63
2022-10-23T20:14:41.946Z,100421.91
2022-10-23T20:17:08.377Z,100439.59
2022-10-23T20:19:35.039Z,100433.53
2022-10-23T20:22:01.846Z,100435.84
2022-10-23T20:24:28.288Z,100442.97
2022-10-23T20:26:55.747Z,100436.59
2022-10-23T20:29:23.027Z,100443.41
2022-10-23T20:31:49.548Z,100446.41
2022-10-23T20:34:16.212Z,100432.53
2022-10-23T20:36:46.782Z,100446.84
2022-10-23T20:39:35.587Z,100451.38
2022-10-23T20:42:03.757Z,100468.31
2022-10-23T20:44:30.781Z,100472.81
2022-10-23T20:46:57.305Z,100471.31
2022-10-23T20:49:23.816Z,100474.69
2022-10-23T20:51:55.655Z,100481.84
2022-10-23T20:54:27.574Z,100480.38
2022-10-23T20:56:54.567Z,100472.91
2022-10-23T20:59:21.043Z,100469.91
2022-10-23T21:01:49.922Z,100473.75
2022-10-23T21:04:19.656Z,100469.63
2022-10-23T21:07:08.420Z,100472.31
2022-10-23T21:09:32.812Z,100481.38
2022-10-23T21:11:59.269Z,100517.78
2022-10-23T21:14:25.806Z,100508.75
2022-10-23T21:16:52.266Z,100493.41
2022-10-23T21:19:18.756Z,100479.09
2022-10-23T21:21:45.265Z,100470.50
2022-10-23T21:24:15.661Z,100463.41
2022-10-23T21:26:42.790Z,100462.22
2022-10-23T21:29:18.954Z,100457.34
2022-10-23T21:31:55.506Z,100457.38
2022-10-23T21:34:22.873Z,100461.09
2022-10-23T21:37:11.469Z,100471.69
2022-10-23T21:39:35.785Z,100460.31
2022-10-23T21:42:02.296Z,100457.78
2022-10-23T21:44:28.802Z,100474.25
2022-10-23T21:46:55.367Z,100474.69
2022-10-23T21:49:21.877Z,100473.88
2022-10-23T21:51:48.438Z,100473.09
2022-10-23T21:54:15.128Z,100478.38
2022-10-23T21:56:50.558Z,100479.13
2022-10-23T21:59:20.173Z,100485.47
2022-10-23T22:01:48.409Z,100493.38
2022-10-23T22:04:17.407Z,100489.19
2022-10-23T22:06:44.964Z,100498.28
2022-10-23T22:09:17.439Z,100492.63
2022-10-23T22:11:43.900Z,100478.75
2022-10-23T22:14:10.531Z,100469.34
2022-10-23T22:16:37.078Z,100467.44
2022-10-23T22:19:03.644Z,100458.41
2022-10-23T22:21:30.829Z,100453.56
2022-10-23T22:23:59.402Z,100473.09
2022-10-23T22:26:29.019Z,100475.28
2022-10-23T22:28:58.777Z,100472.66
2022-10-23T22:31:28.000Z,100472.28
2022-10-23T22:33:55.642Z,100462.00
2022-10-23T22:36:23.026Z,100467.34
2022-10-23T22:38:49.826Z,100462.50
2022-10-23T22:41:16.953Z,100468.84
2022-10-23T22:43:43.672Z,100461.00
2022-10-23T22:46:11.356Z,100452.41
2022-10-23T22:48:38.571Z,100446.00
2022-10-23T22:51:08.361Z,100446.41
2022-10-23T22:53:35.825Z,100449.41
2022-10-23T22:56:06.359Z,100438.88
2022-10-23T22:58:32.918Z,100440.78
2022-10-23T23:01:10.274Z,100437.69
2022-10-23T23:03:37.612Z,100439.28
2022-10-23T23:06:06.077Z,100441.47
2022-10-23T23:08:33.606Z,100439.56
2022-10-23T23:11:00.436Z,100431.38
2022-10-23T23:13:27.607Z,100427.63
2022-10-23T23:15:54.514Z,100422.84
2022-10-23T23:18:21.048Z,100422.44
2022-10-23T23:20:47.568Z,100406.28
2022-10-23T23:23:14.495Z,100413.06
2022-10-23T23:25:43.339Z,100412.31
2022-10-23T23:28:12.005Z,100405.94
2022-10-23T23:30:39.702Z,100407.91
2022-10-23T23:33:06.190Z,100403.03
2022-10-23T23:35:32.678Z,100394.41
2022-10-23T23:37:59.181Z,100401.09
2022-10-23T23:40:26.130Z,100390.91
2022-10-23T23:42:52.588Z,100395.44
2022-10-23T23:45:19.061Z,100393.50
2022-10-23T23:47:45.727Z,100387.88
2022-10-23T23:50:12.732Z,100393.16
2022-10-23T23:52:39.246Z,100391.28
2022-10-23T23:55:06.216Z,100392.81
2022-10-23T23:57:32.731Z,100384.53
2022-10-23T23:59:59.379Z,100390.50
